Airfield :
LOGIN :

Register | Disclaimer

   EN    FR    IT 

 










Legend :    VFR   Marginal VFR   IFR   Intensive IFR   Very Intensive IFR
Visi :
Ceiling :
>= 8 km
>= 3000ft
5 to 8 km
1000 to 3000 ft
1500m to 5 km
500 to 1000 ft
800 to 1500m
200 to 500 ft
< 800m
< 200 ft
Symbols :   Thunderstorms  Fog  Heavy snow  Heavy precipitations  Wind > 20 kt
SIGMETs :     Misc.  Thunderstorms  Icing  Turbulence  Mountain Waves  Volcanic Ashes






- Airport Elevation : 38 ft
- IATA code : BOH


EGHH - Bournemouth

CURRENT METAR :
  • 070920Z 23013KT 9999 FEW020 SCT026 16/12 Q1021

EXPIRED METARs :
  • 070850Z 23009KT 9999 FEW026 16/12 Q1021
  • 070820Z 23008KT 9999 FEW026 16/12 Q1022
  • 070750Z 23008KT 9999 FEW040 15/12 Q1022
  • 070720Z 23007KT 9999 FEW040 15/12 Q1022
  • 070650Z 23007KT 9999 SCT039 14/12 Q1022

TAF TAF EGHH
Valid from the 07 at 09:00 until the 07 at 18:00 UTC


070802Z 0709/0718 23010KT 9999 FEW040
PROB30
TEMPO 0709/0715 8000 -SHRA
PROB30
TEMPO 0711/0715 23015G25KT
PROB30
TEMPO 0717/0718 7000 RA SHRA
ATIS : +44 1202 364 151
Met : +44 1202 364 158 (TAF)



MET'MAP, your aeronautical weather chart ! - Copyright ORBIFLY December 2007 - Disclaimer

ORBIFLY MET'MAP TEAM :

Programming & Development : Alexandra Zaïnal
Original concept : Baudouin d'Aumeries
Technical & hardware support : Manuel Goepfert
Assistance : Marc-Olivier Méhu




SOURCES & CREDITS :

   NOAA